Terminal Aerodrome Forecast
Issued by NWS

Home | Current Version | Previous Version | Text Only | Print | Product List | Glossary On
Versions: 1 2 3 4 5 6 7 8 9 10 11 12 13 14 15 16 17 18 19
389
FTUS43 KGRB 301743 AAA
TAFAUW
TAF AMD
KAUW 301743Z 3018/3118 29008KT P6SM FEW060 SCT200
     FM310200 VRB03KT P6SM SCT120 BKN200
     FM310700 00000KT P6SM VCSH BKN090
     FM310900 13005KT 6SM -SHRA SCT040 OVC070
     FM311200 15007KT P6SM VCSH SCT050 BKN080=

USA.gov is the U.S. government's official web portal to all federal, state and local government web resources and services.